Time;durP1;ratioP1;P1;durP2;ratioP2;P2;SDS_P1;SDS_P2;PMS_P1;PMS_P2;Temp;Humidity;BMP_temperature;BMP_pressure;BME280_temperature;BME280_humidity;BME280_pressure;Samples;Min_cycle;Max_cycle;Signal;HPM_P1;HPM_P2
2021/08/09 00:00:53;;;;;;;2.35;1.8;;;;;;;14.99;90.66016;95540;;;;
2021/08/09 00:01:53;;;;;;;2.35;1.8;;;;;;;14.99;90.66016;95540;;;;
2021/08/09 00:02:54;;;;;;;2.35;1.8;;;;;;;14.99;90.66016;95540;;;;
2021/08/09 00:03:54;;;;;;;3.05;1.7;;;;;;;14.95;90.84375;95521.19;;;;
2021/08/09 00:04:55;;;;;;;3.05;1.7;;;;;;;14.95;90.84375;95521.19;;;;
2021/08/09 00:05:55;;;;;;;3.05;1.7;;;;;;;14.95;90.84375;95521.19;;;;
2021/08/09 00:06:56;;;;;;;3.05;1.7;;;;;;;14.95;90.84375;95521.19;;;;
2021/08/09 00:07:56;;;;;;;3.05;1.7;;;;;;;14.95;90.84375;95521.19;;;;
2021/08/09 00:08:57;;;;;;;3.05;1.7;;;;;;;14.95;90.84375;95521.19;;;;
2021/08/09 00:09:58;;;;;;;3.05;1.7;;;;;;;14.95;90.84375;95521.19;;;;
2021/08/09 00:10:59;;;;;;;3.05;1.7;;;;;;;14.95;90.84375;95521.19;;;;
2021/08/09 00:12:00;;;;;;;3.05;1.7;;;;;;;14.95;90.84375;95521.19;;;;
2021/08/09 00:13:01;;;;;;;3.05;1.7;;;;;;;14.95;90.84375;95521.19;;;;
2021/08/09 00:14:02;;;;;;;2.75;1.8;;;;;;;14.85;90.93262;95534.69;;;;
2021/08/09 00:15:02;;;;;;;2.75;1.8;;;;;;;14.85;90.93262;95534.69;;;;
2021/08/09 00:16:04;;;;;;;2.75;1.8;;;;;;;14.85;90.93262;95534.69;;;;
2021/08/09 00:17:05;;;;;;;2.75;1.8;;;;;;;14.85;90.93262;95534.69;;;;
2021/08/09 00:18:05;;;;;;;2.75;1.8;;;;;;;14.85;90.93262;95534.69;;;;
2021/08/09 00:19:06;;;;;;;2.75;1.8;;;;;;;14.85;90.93262;95534.69;;;;
2021/08/09 00:20:06;;;;;;;2.75;1.8;;;;;;;14.85;90.93262;95534.69;;;;
2021/08/09 00:21:09;;;;;;;2.75;1.8;;;;;;;14.85;90.93262;95534.69;;;;
2021/08/09 00:22:09;;;;;;;2.75;1.8;;;;;;;14.85;90.93262;95534.69;;;;
2021/08/09 00:23:09;;;;;;;2.75;1.8;;;;;;;14.85;90.93262;95534.69;;;;
2021/08/09 00:24:10;;;;;;;2.75;1.8;;;;;;;14.85;90.93262;95534.69;;;;
2021/08/09 00:25:11;;;;;;;3.349999;1.95;;;;;;;14.71;91.01074;95526.67;;;;
2021/08/09 00:26:12;;;;;;;3.349999;1.95;;;;;;;14.71;91.01074;95526.67;;;;
2021/08/09 00:27:13;;;;;;;3.349999;1.95;;;;;;;14.71;91.01074;95526.67;;;;
2021/08/09 00:28:13;;;;;;;3.349999;1.95;;;;;;;14.71;91.01074;95526.67;;;;
2021/08/09 00:29:14;;;;;;;3.349999;1.95;;;;;;;14.71;91.01074;95526.67;;;;
2021/08/09 00:30:14;;;;;;;3.349999;1.95;;;;;;;14.71;91.01074;95526.67;;;;
2021/08/09 00:31:15;;;;;;;3.349999;1.95;;;;;;;14.71;91.01074;95526.67;;;;
2021/08/09 00:32:17;;;;;;;3.349999;1.95;;;;;;;14.71;91.01074;95526.67;;;;
2021/08/09 00:33:17;;;;;;;3.349999;1.95;;;;;;;14.71;91.01074;95526.67;;;;
2021/08/09 00:34:19;;;;;;;3.349999;1.95;;;;;;;14.71;91.01074;95526.67;;;;
2021/08/09 00:35:20;;;;;;;2.9;2;;;;;;;14.55;91.3125;95529.74;;;;
2021/08/09 00:36:20;;;;;;;2.9;2;;;;;;;14.55;91.3125;95529.74;;;;
2021/08/09 00:37:21;;;;;;;2.9;2;;;;;;;14.55;91.3125;95529.74;;;;
2021/08/09 00:38:21;;;;;;;2.9;2;;;;;;;14.55;91.3125;95529.74;;;;
2021/08/09 00:39:22;;;;;;;2.9;2;;;;;;;14.55;91.3125;95529.74;;;;
2021/08/09 00:40:22;;;;;;;2.9;2;;;;;;;14.55;91.3125;95529.74;;;;
2021/08/09 00:41:23;;;;;;;2.9;2;;;;;;;14.55;91.3125;95529.74;;;;
2021/08/09 00:42:24;;;;;;;2.9;2;;;;;;;14.55;91.3125;95529.74;;;;
2021/08/09 00:43:25;;;;;;;2.9;2;;;;;;;14.55;91.3125;95529.74;;;;
2021/08/09 00:44:25;;;;;;;2.9;2;;;;;;;14.55;91.3125;95529.74;;;;
2021/08/09 00:45:28;;;;;;;2.9;2;;;;;;;14.55;91.3125;95529.74;;;;
2021/08/09 00:46:29;;;;;;;2.1;1.9;;;;;;;14.36;91.87109;95513.59;;;;
2021/08/09 00:47:30;;;;;;;2.1;1.9;;;;;;;14.36;91.87109;95513.59;;;;
2021/08/09 00:48:31;;;;;;;2.1;1.9;;;;;;;14.36;91.87109;95513.59;;;;
2021/08/09 00:49:32;;;;;;;2.1;1.9;;;;;;;14.36;91.87109;95513.59;;;;
2021/08/09 00:50:32;;;;;;;2.1;1.9;;;;;;;14.36;91.87109;95513.59;;;;
2021/08/09 00:51:33;;;;;;;2.1;1.9;;;;;;;14.36;91.87109;95513.59;;;;
2021/08/09 00:52:34;;;;;;;2.1;1.9;;;;;;;14.36;91.87109;95513.59;;;;
2021/08/09 00:53:34;;;;;;;2.1;1.9;;;;;;;14.36;91.87109;95513.59;;;;
2021/08/09 00:54:35;;;;;;;2.1;1.9;;;;;;;14.36;91.87109;95513.59;;;;
2021/08/09 00:55:37;;;;;;;2.1;1.9;;;;;;;14.36;91.87109;95513.59;;;;
2021/08/09 00:56:38;;;;;;;10.7;2.4;;;;;;;14.18;92.46777;95521.09;;;;
2021/08/09 00:57:39;;;;;;;10.7;2.4;;;;;;;14.18;92.46777;95521.09;;;;
2021/08/09 00:58:39;;;;;;;10.7;2.4;;;;;;;14.18;92.46777;95521.09;;;;
2021/08/09 00:59:40;;;;;;;10.7;2.4;;;;;;;14.18;92.46777;95521.09;;;;
2021/08/09 01:00:40;;;;;;;10.7;2.4;;;;;;;14.18;92.46777;95521.09;;;;
2021/08/09 01:01:41;;;;;;;10.7;2.4;;;;;;;14.18;92.46777;95521.09;;;;
2021/08/09 01:02:42;;;;;;;10.7;2.4;;;;;;;14.18;92.46777;95521.09;;;;
2021/08/09 01:03:43;;;;;;;10.7;2.4;;;;;;;14.18;92.46777;95521.09;;;;
2021/08/09 01:04:43;;;;;;;10.7;2.4;;;;;;;14.18;92.46777;95521.09;;;;
2021/08/09 01:05:46;;;;;;;10.7;2.4;;;;;;;14.18;92.46777;95521.09;;;;
2021/08/09 01:06:47;;;;;;;10.7;2.4;;;;;;;14.18;92.46777;95521.09;;;;
2021/08/09 01:07:48;;;;;;;2.2;1.9;;;;;;;13.99;92.69824;95497.94;;;;
2021/08/09 01:08:57;;;;;;;2.2;1.9;;;;;;;13.99;92.69824;95497.94;;;;
2021/08/09 01:10:06;;;;;;;2.2;1.9;;;;;;;13.99;92.69824;95497.94;;;;
2021/08/09 01:11:15;;;;;;;2.2;1.9;;;;;;;13.99;92.69824;95497.94;;;;
2021/08/09 01:12:22;;;;;;;2.2;1.9;;;;;;;13.99;92.69824;95497.94;;;;
2021/08/09 01:13:29;;;;;;;2.2;1.9;;;;;;;13.99;92.69824;95497.94;;;;
2021/08/09 01:14:46;;;;;;;2.2;1.9;;;;;;;13.99;92.69824;95497.94;;;;
2021/08/09 01:15:58;;;;;;;2.2;1.9;;;;;;;13.99;92.69824;95497.94;;;;
2021/08/09 01:17:10;;;;;;;2.2;1.9;;;;;;;13.99;92.69824;95497.94;;;;
2021/08/09 01:18:13;;;;;;;3.15;1.95;;;;;;;13.59;93.12891;95501.84;;;;
2021/08/09 01:19:15;;;;;;;3.15;1.95;;;;;;;13.59;93.12891;95501.84;;;;
2021/08/09 01:20:31;;;;;;;3.15;1.95;;;;;;;13.59;93.12891;95501.84;;;;
2021/08/09 01:21:45;;;;;;;3.15;1.95;;;;;;;13.59;93.12891;95501.84;;;;
2021/08/09 01:22:46;;;;;;;3.15;1.95;;;;;;;13.59;93.12891;95501.84;;;;
2021/08/09 01:23:56;;;;;;;3.15;1.95;;;;;;;13.59;93.12891;95501.84;;;;
2021/08/09 01:25:09;;;;;;;3.15;1.95;;;;;;;13.59;93.12891;95501.84;;;;
2021/08/09 01:26:16;;;;;;;3.15;1.95;;;;;;;13.59;93.12891;95501.84;;;;
2021/08/09 01:27:26;;;;;;;3.15;1.95;;;;;;;13.59;93.12891;95501.84;;;;
2021/08/09 01:28:29;;;;;;;3.15;2.2;;;;;;;13.41;94.16895;95506.29;;;;
2021/08/09 01:29:32;;;;;;;3.15;2.2;;;;;;;13.41;94.16895;95506.29;;;;
2021/08/09 01:30:39;;;;;;;3.15;2.2;;;;;;;13.41;94.16895;95506.29;;;;
2021/08/09 01:31:42;;;;;;;3.15;2.2;;;;;;;13.41;94.16895;95506.29;;;;
2021/08/09 01:32:47;;;;;;;3.15;2.2;;;;;;;13.41;94.16895;95506.29;;;;
2021/08/09 01:33:48;;;;;;;3.15;2.2;;;;;;;13.41;94.16895;95506.29;;;;
2021/08/09 01:34:49;;;;;;;3.15;2.2;;;;;;;13.41;94.16895;95506.29;;;;
2021/08/09 01:35:50;;;;;;;3.15;2.2;;;;;;;13.41;94.16895;95506.29;;;;
2021/08/09 01:36:53;;;;;;;3.15;2.2;;;;;;;13.41;94.16895;95506.29;;;;
2021/08/09 01:37:58;;;;;;;3.15;2.2;;;;;;;13.41;94.16895;95506.29;;;;
2021/08/09 01:39:00;;;;;;;3.25;2.4;;;;;;;13.43;94.97754;95503.22;;;;
2021/08/09 01:40:03;;;;;;;3.25;2.4;;;;;;;13.43;94.97754;95503.22;;;;
2021/08/09 01:41:06;;;;;;;3.25;2.4;;;;;;;13.43;94.97754;95503.22;;;;
2021/08/09 01:42:08;;;;;;;3.25;2.4;;;;;;;13.43;94.97754;95503.22;;;;
2021/08/09 01:43:09;;;;;;;3.25;2.4;;;;;;;13.43;94.97754;95503.22;;;;
2021/08/09 01:44:11;;;;;;;3.25;2.4;;;;;;;13.43;94.97754;95503.22;;;;
2021/08/09 01:45:14;;;;;;;3.25;2.4;;;;;;;13.43;94.97754;95503.22;;;;
2021/08/09 01:46:16;;;;;;;3.25;2.4;;;;;;;13.43;94.97754;95503.22;;;;
2021/08/09 01:47:16;;;;;;;3.25;2.4;;;;;;;13.43;94.97754;95503.22;;;;
2021/08/09 01:48:17;;;;;;;3.25;2.4;;;;;;;13.43;94.97754;95503.22;;;;
2021/08/09 01:49:18;;;;;;;3.25;2.4;;;;;;;13.43;94.97754;95503.22;;;;
2021/08/09 01:50:20;;;;;;;2.8;2.3;;;;;;;13.58;95.43848;95503.04;;;;
2021/08/09 01:51:21;;;;;;;2.8;2.3;;;;;;;13.58;95.43848;95503.04;;;;
2021/08/09 01:52:22;;;;;;;2.8;2.3;;;;;;;13.58;95.43848;95503.04;;;;
2021/08/09 01:53:24;;;;;;;2.8;2.3;;;;;;;13.58;95.43848;95503.04;;;;
2021/08/09 01:54:25;;;;;;;2.8;2.3;;;;;;;13.58;95.43848;95503.04;;;;
2021/08/09 01:55:26;;;;;;;2.8;2.3;;;;;;;13.58;95.43848;95503.04;;;;
2021/08/09 01:56:27;;;;;;;2.8;2.3;;;;;;;13.58;95.43848;95503.04;;;;
2021/08/09 01:57:28;;;;;;;2.8;2.3;;;;;;;13.58;95.43848;95503.04;;;;
2021/08/09 01:58:29;;;;;;;2.8;2.3;;;;;;;13.58;95.43848;95503.04;;;;
2021/08/09 01:59:30;;;;;;;2.8;2.3;;;;;;;13.58;95.43848;95503.04;;;;
2021/08/09 02:00:30;;;;;;;2.2;2;;;;;;;13.7;95.56152;95503.22;;;;
2021/08/09 02:01:31;;;;;;;2.2;2;;;;;;;13.7;95.56152;95503.22;;;;
2021/08/09 02:02:32;;;;;;;2.2;2;;;;;;;13.7;95.56152;95503.22;;;;
2021/08/09 02:03:33;;;;;;;2.2;2;;;;;;;13.7;95.56152;95503.22;;;;
2021/08/09 02:04:34;;;;;;;2.2;2;;;;;;;13.7;95.56152;95503.22;;;;
2021/08/09 02:05:34;;;;;;;2.2;2;;;;;;;13.7;95.56152;95503.22;;;;
2021/08/09 02:06:35;;;;;;;2.2;2;;;;;;;13.7;95.56152;95503.22;;;;
2021/08/09 02:07:35;;;;;;;2.2;2;;;;;;;13.7;95.56152;95503.22;;;;
2021/08/09 02:08:38;;;;;;;2.2;2;;;;;;;13.7;95.56152;95503.22;;;;
2021/08/09 02:09:39;;;;;;;2.2;2;;;;;;;13.7;95.56152;95503.22;;;;
2021/08/09 02:10:40;;;;;;;2.2;2;;;;;;;13.7;95.56152;95503.22;;;;
2021/08/09 02:11:41;;;;;;;2.750001;2.15;;;;;;;13.72;95.70508;95491.58;;;;
2021/08/09 02:12:49;;;;;;;2.750001;2.15;;;;;;;13.72;95.70508;95491.58;;;;
2021/08/09 02:13:55;;;;;;;2.750001;2.15;;;;;;;13.72;95.70508;95491.58;;;;
2021/08/09 02:15:01;;;;;;;2.750001;2.15;;;;;;;13.72;95.70508;95491.58;;;;
2021/08/09 02:16:03;;;;;;;2.750001;2.15;;;;;;;13.72;95.70508;95491.58;;;;
2021/08/09 02:17:09;;;;;;;2.750001;2.15;;;;;;;13.72;95.70508;95491.58;;;;
2021/08/09 02:18:14;;;;;;;2.750001;2.15;;;;;;;13.72;95.70508;95491.58;;;;
2021/08/09 02:19:21;;;;;;;2.750001;2.15;;;;;;;13.72;95.70508;95491.58;;;;
2021/08/09 02:20:28;;;;;;;2.750001;2.15;;;;;;;13.72;95.70508;95491.58;;;;
2021/08/09 02:21:32;;;;;;;2.750001;2.15;;;;;;;13.72;95.70508;95491.58;;;;
2021/08/09 02:22:40;;;;;;;2.3;2.1;;;;;;;13.52;95.7793;95501.2;;;;
2021/08/09 02:23:47;;;;;;;2.3;2.1;;;;;;;13.52;95.7793;95501.2;;;;
2021/08/09 02:24:52;;;;;;;2.3;2.1;;;;;;;13.52;95.7793;95501.2;;;;
2021/08/09 02:25:56;;;;;;;2.3;2.1;;;;;;;13.52;95.7793;95501.2;;;;
2021/08/09 02:26:58;;;;;;;2.3;2.1;;;;;;;13.52;95.7793;95501.2;;;;
2021/08/09 02:28:07;;;;;;;2.3;2.1;;;;;;;13.52;95.7793;95501.2;;;;
2021/08/09 02:29:13;;;;;;;2.3;2.1;;;;;;;13.52;95.7793;95501.2;;;;
2021/08/09 02:30:17;;;;;;;2.3;2.1;;;;;;;13.52;95.7793;95501.2;;;;
2021/08/09 02:31:20;;;;;;;2.3;2.1;;;;;;;13.52;95.7793;95501.2;;;;
2021/08/09 02:32:23;;;;;;;6.1;2.4;;;;;;;13.23;96.33496;95502.47;;;;
2021/08/09 02:33:28;;;;;;;6.1;2.4;;;;;;;13.23;96.33496;95502.47;;;;
2021/08/09 02:34:32;;;;;;;6.1;2.4;;;;;;;13.23;96.33496;95502.47;;;;
2021/08/09 02:35:34;;;;;;;6.1;2.4;;;;;;;13.23;96.33496;95502.47;;;;
2021/08/09 02:36:36;;;;;;;6.1;2.4;;;;;;;13.23;96.33496;95502.47;;;;
2021/08/09 02:37:37;;;;;;;6.1;2.4;;;;;;;13.23;96.33496;95502.47;;;;
2021/08/09 02:38:37;;;;;;;6.1;2.4;;;;;;;13.23;96.33496;95502.47;;;;
2021/08/09 02:39:40;;;;;;;6.1;2.4;;;;;;;13.23;96.33496;95502.47;;;;
2021/08/09 02:40:42;;;;;;;6.1;2.4;;;;;;;13.23;96.33496;95502.47;;;;
2021/08/09 02:41:44;;;;;;;6.1;2.4;;;;;;;13.23;96.33496;95502.47;;;;
2021/08/09 02:42:45;;;;;;;6.1;2.4;;;;;;;13.23;96.33496;95502.47;;;;
2021/08/09 02:43:46;;;;;;;4.15;2.45;;;;;;;13.19;97.20508;95496.72;;;;
2021/08/09 02:44:47;;;;;;;4.15;2.45;;;;;;;13.19;97.20508;95496.72;;;;
2021/08/09 02:45:48;;;;;;;4.15;2.45;;;;;;;13.19;97.20508;95496.72;;;;
2021/08/09 02:46:49;;;;;;;4.15;2.45;;;;;;;13.19;97.20508;95496.72;;;;
2021/08/09 02:47:51;;;;;;;4.15;2.45;;;;;;;13.19;97.20508;95496.72;;;;
2021/08/09 02:48:52;;;;;;;4.15;2.45;;;;;;;13.19;97.20508;95496.72;;;;
2021/08/09 02:49:52;;;;;;;4.15;2.45;;;;;;;13.19;97.20508;95496.72;;;;
2021/08/09 02:50:54;;;;;;;4.15;2.45;;;;;;;13.19;97.20508;95496.72;;;;
2021/08/09 02:51:54;;;;;;;4.15;2.45;;;;;;;13.19;97.20508;95496.72;;;;
2021/08/09 02:52:55;;;;;;;4.15;2.45;;;;;;;13.19;97.20508;95496.72;;;;
2021/08/09 02:53:58;;;;;;;4.35;2.15;;;;;;;13.38;97.59766;95493.65;;;;
2021/08/09 02:54:58;;;;;;;4.35;2.15;;;;;;;13.38;97.59766;95493.65;;;;
2021/08/09 02:58:06;;;;;;;4.35;2.15;;;;;;;13.38;97.59766;95493.65;;;;
2021/08/09 02:59:07;;;;;;;4.35;2.15;;;;;;;13.38;97.59766;95493.65;;;;
2021/08/09 03:00:07;;;;;;;4.35;2.15;;;;;;;13.38;97.59766;95493.65;;;;
2021/08/09 03:01:09;;;;;;;4.35;2.15;;;;;;;13.38;97.59766;95493.65;;;;
2021/08/09 03:02:14;;;;;;;4.35;2.15;;;;;;;13.38;97.59766;95493.65;;;;
2021/08/09 03:03:16;;;;;;;4.35;2.15;;;;;;;13.38;97.59766;95493.65;;;;
2021/08/09 03:04:22;;;;;;;4.35;2.15;;;;;;;13.38;97.59766;95493.65;;;;
2021/08/09 03:05:24;;;;;;;3.35;2.3;;;;;;;13.56;97.55371;95487.95;;;;
2021/08/09 03:06:26;;;;;;;3.35;2.3;;;;;;;13.56;97.55371;95487.95;;;;
2021/08/09 03:07:27;;;;;;;3.35;2.3;;;;;;;13.56;97.55371;95487.95;;;;
2021/08/09 03:08:30;;;;;;;3.35;2.3;;;;;;;13.56;97.55371;95487.95;;;;
2021/08/09 03:09:30;;;;;;;3.35;2.3;;;;;;;13.56;97.55371;95487.95;;;;
2021/08/09 03:10:33;;;;;;;3.35;2.3;;;;;;;13.56;97.55371;95487.95;;;;
2021/08/09 03:11:33;;;;;;;3.35;2.3;;;;;;;13.56;97.55371;95487.95;;;;
2021/08/09 03:12:34;;;;;;;3.35;2.3;;;;;;;13.56;97.55371;95487.95;;;;
2021/08/09 03:13:35;;;;;;;3.35;2.3;;;;;;;13.56;97.55371;95487.95;;;;
2021/08/09 03:14:35;;;;;;;3.35;2.3;;;;;;;13.56;97.55371;95487.95;;;;
2021/08/09 03:15:36;;;;;;;2.65;2.4;;;;;;;13.72;97.6748;95506.09;;;;
2021/08/09 03:16:37;;;;;;;2.65;2.4;;;;;;;13.72;97.6748;95506.09;;;;
2021/08/09 03:17:41;;;;;;;2.65;2.4;;;;;;;13.72;97.6748;95506.09;;;;
2021/08/09 03:18:42;;;;;;;2.65;2.4;;;;;;;13.72;97.6748;95506.09;;;;
2021/08/09 03:19:42;;;;;;;2.65;2.4;;;;;;;13.72;97.6748;95506.09;;;;
2021/08/09 03:20:43;;;;;;;2.65;2.4;;;;;;;13.72;97.6748;95506.09;;;;
2021/08/09 03:21:44;;;;;;;2.65;2.4;;;;;;;13.72;97.6748;95506.09;;;;
2021/08/09 03:22:49;;;;;;;2.65;2.4;;;;;;;13.72;97.6748;95506.09;;;;
2021/08/09 03:23:49;;;;;;;2.65;2.4;;;;;;;13.72;97.6748;95506.09;;;;
2021/08/09 03:24:50;;;;;;;2.65;2.4;;;;;;;13.72;97.6748;95506.09;;;;
2021/08/09 03:25:50;;;;;;;2.55;2.2;;;;;;;13.86;97.80273;95511.44;;;;
2021/08/09 03:26:51;;;;;;;2.55;2.2;;;;;;;13.86;97.80273;95511.44;;;;
2021/08/09 03:27:51;;;;;;;2.55;2.2;;;;;;;13.86;97.80273;95511.44;;;;
2021/08/09 03:28:52;;;;;;;2.55;2.2;;;;;;;13.86;97.80273;95511.44;;;;
2021/08/09 03:29:52;;;;;;;2.55;2.2;;;;;;;13.86;97.80273;95511.44;;;;
2021/08/09 03:30:53;;;;;;;2.55;2.2;;;;;;;13.86;97.80273;95511.44;;;;
2021/08/09 03:31:53;;;;;;;2.55;2.2;;;;;;;13.86;97.80273;95511.44;;;;
2021/08/09 03:32:54;;;;;;;2.55;2.2;;;;;;;13.86;97.80273;95511.44;;;;
2021/08/09 03:33:55;;;;;;;2.55;2.2;;;;;;;13.86;97.80273;95511.44;;;;
2021/08/09 03:34:55;;;;;;;2.55;2.2;;;;;;;13.86;97.80273;95511.44;;;;
2021/08/09 03:35:56;;;;;;;2.55;2.2;;;;;;;13.86;97.80273;95511.44;;;;
2021/08/09 03:36:57;;;;;;;2.5;2.1;;;;;;;13.94;97.7998;95524.57;;;;
2021/08/09 03:37:57;;;;;;;2.5;2.1;;;;;;;13.94;97.7998;95524.57;;;;
2021/08/09 03:38:58;;;;;;;2.5;2.1;;;;;;;13.94;97.7998;95524.57;;;;
2021/08/09 03:39:58;;;;;;;2.5;2.1;;;;;;;13.94;97.7998;95524.57;;;;
2021/08/09 03:40:59;;;;;;;2.5;2.1;;;;;;;13.94;97.7998;95524.57;;;;
2021/08/09 03:41:59;;;;;;;2.5;2.1;;;;;;;13.94;97.7998;95524.57;;;;
2021/08/09 03:43:00;;;;;;;2.5;2.1;;;;;;;13.94;97.7998;95524.57;;;;
2021/08/09 03:44:00;;;;;;;2.5;2.1;;;;;;;13.94;97.7998;95524.57;;;;
2021/08/09 03:45:01;;;;;;;2.5;2.1;;;;;;;13.94;97.7998;95524.57;;;;
2021/08/09 03:46:02;;;;;;;2.5;2.1;;;;;;;13.94;97.7998;95524.57;;;;
2021/08/09 03:47:02;;;;;;;4.100001;2;;;;;;;13.95;97.78027;95528;;;;
2021/08/09 03:48:06;;;;;;;4.100001;2;;;;;;;13.95;97.78027;95528;;;;
2021/08/09 03:49:08;;;;;;;4.100001;2;;;;;;;13.95;97.78027;95528;;;;
2021/08/09 03:50:09;;;;;;;4.100001;2;;;;;;;13.95;97.78027;95528;;;;
2021/08/09 03:51:10;;;;;;;4.100001;2;;;;;;;13.95;97.78027;95528;;;;
2021/08/09 03:52:10;;;;;;;4.100001;2;;;;;;;13.95;97.78027;95528;;;;
2021/08/09 03:53:10;;;;;;;4.100001;2;;;;;;;13.95;97.78027;95528;;;;
2021/08/09 03:54:11;;;;;;;4.100001;2;;;;;;;13.95;97.78027;95528;;;;
2021/08/09 03:55:11;;;;;;;4.100001;2;;;;;;;13.95;97.78027;95528;;;;
2021/08/09 03:56:12;;;;;;;4.100001;2;;;;;;;13.95;97.78027;95528;;;;
2021/08/09 03:57:13;;;;;;;4.100001;2;;;;;;;13.95;97.78027;95528;;;;
2021/08/09 03:58:13;;;;;;;2.8;2.2;;;;;;;13.9;97.89648;95529.3;;;;
2021/08/09 03:59:14;;;;;;;2.8;2.2;;;;;;;13.9;97.89648;95529.3;;;;
2021/08/09 04:00:14;;;;;;;2.8;2.2;;;;;;;13.9;97.89648;95529.3;;;;
2021/08/09 04:01:15;;;;;;;2.8;2.2;;;;;;;13.9;97.89648;95529.3;;;;
2021/08/09 04:02:17;;;;;;;2.8;2.2;;;;;;;13.9;97.89648;95529.3;;;;
2021/08/09 04:03:17;;;;;;;2.8;2.2;;;;;;;13.9;97.89648;95529.3;;;;
2021/08/09 04:04:18;;;;;;;2.8;2.2;;;;;;;13.9;97.89648;95529.3;;;;
2021/08/09 04:05:18;;;;;;;2.8;2.2;;;;;;;13.9;97.89648;95529.3;;;;
2021/08/09 04:06:20;;;;;;;2.8;2.2;;;;;;;13.9;97.89648;95529.3;;;;
2021/08/09 04:07:20;;;;;;;2.8;2.2;;;;;;;13.9;97.89648;95529.3;;;;
2021/08/09 04:08:21;;;;;;;2.8;2.2;;;;;;;13.9;97.89648;95529.3;;;;
2021/08/09 04:09:21;;;;;;;4.55;2.3;;;;;;;13.77;97.82422;95507.11;;;;
2021/08/09 04:10:22;;;;;;;4.55;2.3;;;;;;;13.77;97.82422;95507.11;;;;
2021/08/09 04:11:23;;;;;;;4.55;2.3;;;;;;;13.77;97.82422;95507.11;;;;
2021/08/09 04:12:23;;;;;;;4.55;2.3;;;;;;;13.77;97.82422;95507.11;;;;
2021/08/09 04:13:24;;;;;;;4.55;2.3;;;;;;;13.77;97.82422;95507.11;;;;
2021/08/09 04:14:24;;;;;;;4.55;2.3;;;;;;;13.77;97.82422;95507.11;;;;
2021/08/09 04:15:25;;;;;;;4.55;2.3;;;;;;;13.77;97.82422;95507.11;;;;
2021/08/09 04:16:25;;;;;;;4.55;2.3;;;;;;;13.77;97.82422;95507.11;;;;
2021/08/09 04:17:26;;;;;;;4.55;2.3;;;;;;;13.77;97.82422;95507.11;;;;
2021/08/09 04:18:26;;;;;;;4.55;2.3;;;;;;;13.77;97.82422;95507.11;;;;
2021/08/09 04:19:27;;;;;;;3.1;2.15;;;;;;;13.51;97.78906;95515.81;;;;
2021/08/09 04:20:27;;;;;;;3.1;2.15;;;;;;;13.51;97.78906;95515.81;;;;
2021/08/09 04:21:28;;;;;;;3.1;2.15;;;;;;;13.51;97.78906;95515.81;;;;
2021/08/09 04:22:28;;;;;;;3.1;2.15;;;;;;;13.51;97.78906;95515.81;;;;
2021/08/09 04:23:29;;;;;;;3.1;2.15;;;;;;;13.51;97.78906;95515.81;;;;
2021/08/09 04:24:29;;;;;;;3.1;2.15;;;;;;;13.51;97.78906;95515.81;;;;
2021/08/09 04:25:30;;;;;;;3.1;2.15;;;;;;;13.51;97.78906;95515.81;;;;
2021/08/09 04:26:31;;;;;;;3.1;2.15;;;;;;;13.51;97.78906;95515.81;;;;
2021/08/09 04:27:31;;;;;;;3.1;2.15;;;;;;;13.51;97.78906;95515.81;;;;
2021/08/09 04:28:32;;;;;;;3.1;2.15;;;;;;;13.51;97.78906;95515.81;;;;
2021/08/09 04:29:32;;;;;;;3.1;2.15;;;;;;;13.51;97.78906;95515.81;;;;
2021/08/09 04:30:33;;;;;;;2.35;2.15;;;;;;;13.31;98.06445;95523.25;;;;
2021/08/09 04:31:34;;;;;;;2.35;2.15;;;;;;;13.31;98.06445;95523.25;;;;
2021/08/09 04:32:40;;;;;;;2.35;2.15;;;;;;;13.31;98.06445;95523.25;;;;
2021/08/09 04:33:42;;;;;;;2.35;2.15;;;;;;;13.31;98.06445;95523.25;;;;
2021/08/09 04:34:44;;;;;;;2.35;2.15;;;;;;;13.31;98.06445;95523.25;;;;
2021/08/09 04:35:44;;;;;;;2.35;2.15;;;;;;;13.31;98.06445;95523.25;;;;
2021/08/09 04:36:45;;;;;;;2.35;2.15;;;;;;;13.31;98.06445;95523.25;;;;
2021/08/09 04:37:45;;;;;;;2.35;2.15;;;;;;;13.31;98.06445;95523.25;;;;
2021/08/09 04:38:46;;;;;;;2.35;2.15;;;;;;;13.31;98.06445;95523.25;;;;
2021/08/09 04:39:46;;;;;;;2.35;2.15;;;;;;;13.31;98.06445;95523.25;;;;
2021/08/09 04:40:47;;;;;;;3.3;2.4;;;;;;;13.06;98.55469;95525.5;;;;
2021/08/09 04:41:47;;;;;;;3.3;2.4;;;;;;;13.06;98.55469;95525.5;;;;
2021/08/09 04:42:48;;;;;;;3.3;2.4;;;;;;;13.06;98.55469;95525.5;;;;
2021/08/09 04:43:48;;;;;;;3.3;2.4;;;;;;;13.06;98.55469;95525.5;;;;
2021/08/09 04:44:49;;;;;;;3.3;2.4;;;;;;;13.06;98.55469;95525.5;;;;
2021/08/09 04:45:49;;;;;;;3.3;2.4;;;;;;;13.06;98.55469;95525.5;;;;
2021/08/09 04:46:50;;;;;;;3.3;2.4;;;;;;;13.06;98.55469;95525.5;;;;
2021/08/09 04:47:51;;;;;;;3.3;2.4;;;;;;;13.06;98.55469;95525.5;;;;
2021/08/09 04:48:52;;;;;;;3.3;2.4;;;;;;;13.06;98.55469;95525.5;;;;
2021/08/09 04:49:52;;;;;;;3.3;2.4;;;;;;;13.06;98.55469;95525.5;;;;
2021/08/09 04:50:53;;;;;;;3.3;2.4;;;;;;;13.06;98.55469;95525.5;;;;
2021/08/09 04:51:53;;;;;;;3.25;2.5;;;;;;;12.92;99.27051;95520.5;;;;
2021/08/09 04:52:54;;;;;;;3.25;2.5;;;;;;;12.92;99.27051;95520.5;;;;
2021/08/09 04:53:54;;;;;;;3.25;2.5;;;;;;;12.92;99.27051;95520.5;;;;
2021/08/09 04:54:55;;;;;;;3.25;2.5;;;;;;;12.92;99.27051;95520.5;;;;
2021/08/09 04:55:55;;;;;;;3.25;2.5;;;;;;;12.92;99.27051;95520.5;;;;
2021/08/09 04:56:56;;;;;;;3.25;2.5;;;;;;;12.92;99.27051;95520.5;;;;
2021/08/09 04:57:56;;;;;;;3.25;2.5;;;;;;;12.92;99.27051;95520.5;;;;
2021/08/09 04:58:57;;;;;;;3.25;2.5;;;;;;;12.92;99.27051;95520.5;;;;
2021/08/09 04:59:57;;;;;;;3.25;2.5;;;;;;;12.92;99.27051;95520.5;;;;
2021/08/09 05:00:58;;;;;;;3.25;2.5;;;;;;;12.92;99.27051;95520.5;;;;
2021/08/09 05:01:58;;;;;;;2.9;2.55;;;;;;;12.98;99.71289;95520.89;;;;
2021/08/09 05:02:59;;;;;;;2.9;2.55;;;;;;;12.98;99.71289;95520.89;;;;
2021/08/09 05:03:59;;;;;;;2.9;2.55;;;;;;;12.98;99.71289;95520.89;;;;
2021/08/09 05:05:00;;;;;;;2.9;2.55;;;;;;;12.98;99.71289;95520.89;;;;
2021/08/09 05:06:00;;;;;;;2.9;2.55;;;;;;;12.98;99.71289;95520.89;;;;
2021/08/09 05:07:01;;;;;;;2.9;2.55;;;;;;;12.98;99.71289;95520.89;;;;
2021/08/09 05:08:02;;;;;;;2.9;2.55;;;;;;;12.98;99.71289;95520.89;;;;
2021/08/09 05:09:03;;;;;;;2.9;2.55;;;;;;;12.98;99.71289;95520.89;;;;
2021/08/09 05:10:03;;;;;;;2.9;2.55;;;;;;;12.98;99.71289;95520.89;;;;
2021/08/09 05:11:06;;;;;;;2.9;2.55;;;;;;;12.98;99.71289;95520.89;;;;
2021/08/09 05:12:06;;;;;;;2.9;2.55;;;;;;;12.98;99.71289;95520.89;;;;
2021/08/09 05:13:07;;;;;;;4.900001;2.8;;;;;;;13.13;99.98145;95533.77;;;;
2021/08/09 05:14:07;;;;;;;4.900001;2.8;;;;;;;13.13;99.98145;95533.77;;;;
2021/08/09 05:15:08;;;;;;;4.900001;2.8;;;;;;;13.13;99.98145;95533.77;;;;
2021/08/09 05:16:09;;;;;;;4.900001;2.8;;;;;;;13.13;99.98145;95533.77;;;;
2021/08/09 05:17:10;;;;;;;4.900001;2.8;;;;;;;13.13;99.98145;95533.77;;;;
2021/08/09 05:18:10;;;;;;;4.900001;2.8;;;;;;;13.13;99.98145;95533.77;;;;
2021/08/09 05:19:12;;;;;;;4.900001;2.8;;;;;;;13.13;99.98145;95533.77;;;;
2021/08/09 05:20:12;;;;;;;4.900001;2.8;;;;;;;13.13;99.98145;95533.77;;;;
2021/08/09 05:21:13;;;;;;;4.900001;2.8;;;;;;;13.13;99.98145;95533.77;;;;
2021/08/09 05:22:15;;;;;;;4.900001;2.8;;;;;;;13.13;99.98145;95533.77;;;;
2021/08/09 05:23:16;;;;;;;3.1;2.5;;;;;;;13.54;100;95538.4;;;;
2021/08/09 05:24:16;;;;;;;3.1;2.5;;;;;;;13.54;100;95538.4;;;;
2021/08/09 05:25:17;;;;;;;3.1;2.5;;;;;;;13.54;100;95538.4;;;;
2021/08/09 05:26:21;;;;;;;3.1;2.5;;;;;;;13.54;100;95538.4;;;;
2021/08/09 05:27:21;;;;;;;3.1;2.5;;;;;;;13.54;100;95538.4;;;;
2021/08/09 05:28:22;;;;;;;3.1;2.5;;;;;;;13.54;100;95538.4;;;;
2021/08/09 05:29:22;;;;;;;3.1;2.5;;;;;;;13.54;100;95538.4;;;;
2021/08/09 05:30:23;;;;;;;3.1;2.5;;;;;;;13.54;100;95538.4;;;;
2021/08/09 05:31:23;;;;;;;3.1;2.5;;;;;;;13.54;100;95538.4;;;;
2021/08/09 05:32:24;;;;;;;3.1;2.5;;;;;;;13.54;100;95538.4;;;;
2021/08/09 05:33:25;;;;;;;3.1;2.5;;;;;;;13.54;100;95538.4;;;;
2021/08/09 05:34:25;;;;;;;2.4;1.9;;;;;;;14.22;99.75586;95548.97;;;;
2021/08/09 05:35:26;;;;;;;2.4;1.9;;;;;;;14.22;99.75586;95548.97;;;;
2021/08/09 05:36:27;;;;;;;2.4;1.9;;;;;;;14.22;99.75586;95548.97;;;;
2021/08/09 05:37:31;;;;;;;2.4;1.9;;;;;;;14.22;99.75586;95548.97;;;;
2021/08/09 05:38:32;;;;;;;2.4;1.9;;;;;;;14.22;99.75586;95548.97;;;;
2021/08/09 05:39:32;;;;;;;2.4;1.9;;;;;;;14.22;99.75586;95548.97;;;;
2021/08/09 05:40:34;;;;;;;2.4;1.9;;;;;;;14.22;99.75586;95548.97;;;;
2021/08/09 05:41:35;;;;;;;2.4;1.9;;;;;;;14.22;99.75586;95548.97;;;;
2021/08/09 05:42:37;;;;;;;2.4;1.9;;;;;;;14.22;99.75586;95548.97;;;;
2021/08/09 05:43:37;;;;;;;2.4;1.9;;;;;;;14.22;99.75586;95548.97;;;;
2021/08/09 05:44:38;;;;;;;2.5;2.05;;;;;;;14.76;98.83887;95554.32;;;;
2021/08/09 05:45:38;;;;;;;2.5;2.05;;;;;;;14.76;98.83887;95554.32;;;;
2021/08/09 05:46:39;;;;;;;2.5;2.05;;;;;;;14.76;98.83887;95554.32;;;;
2021/08/09 05:47:39;;;;;;;2.5;2.05;;;;;;;14.76;98.83887;95554.32;;;;
2021/08/09 05:48:40;;;;;;;2.5;2.05;;;;;;;14.76;98.83887;95554.32;;;;
2021/08/09 05:49:40;;;;;;;2.5;2.05;;;;;;;14.76;98.83887;95554.32;;;;
2021/08/09 05:50:41;;;;;;;2.5;2.05;;;;;;;14.76;98.83887;95554.32;;;;
2021/08/09 05:51:41;;;;;;;2.5;2.05;;;;;;;14.76;98.83887;95554.32;;;;
2021/08/09 05:52:42;;;;;;;2.5;2.05;;;;;;;14.76;98.83887;95554.32;;;;
2021/08/09 05:53:42;;;;;;;2.5;2.05;;;;;;;14.76;98.83887;95554.32;;;;
2021/08/09 05:54:43;;;;;;;2.5;2.05;;;;;;;14.76;98.83887;95554.32;;;;
2021/08/09 05:55:44;;;;;;;3.75;2.25;;;;;;;15.1;98.43164;95546.23;;;;
2021/08/09 05:56:45;;;;;;;3.75;2.25;;;;;;;15.1;98.43164;95546.23;;;;
2021/08/09 05:57:45;;;;;;;3.75;2.25;;;;;;;15.1;98.43164;95546.23;;;;
2021/08/09 05:58:45;;;;;;;3.75;2.25;;;;;;;15.1;98.43164;95546.23;;;;